Main page
METAR-TAF:

METAR-TAF

Airports :

L.F. Wade International Airport

Bermuda, Bermuda

latitude: 32-22N, longitude: 064-41W, elevation: 6 m

Current weather observation

The report was made 40 minutes ago, at 11:55 UTC
Wind 15 kt from the Southwest
Temperature 27°C
Humidity 79%
Pressure 1018 hPa
Visibility 10 km or more
Scattered clouds at a height of 1000 ft

METAR: TXKF 141155Z 22015KT 9999 SCT010 27/23 Q1018

Time: 09:35 (12:35 UTC)

Forecast

The report was made 1 hour and 4 minutes ago, at 11:31 UTC
Forecast valid from 14 at 12 UTC to 15 at 12 UTC
Wind 15 kt from the Southwest
Visibility 10 km or more
Few clouds at a height of 1000 ft
Scattered clouds at a height of 30000 ft
Probability 30% :
Temporary
from 14 at 20 UTC to 15 at 06 UTC
Visibility: 6000 m
Broken clouds at a height of 1200 ft
light rain showers

TAF: TXKF 141131Z 1412/1512 23015KT 9999 FEW010 SCT300 PROB30 TEMPO 1420/1506 6000 -SHRA BKN012

Weather observations and forecasts of more than 4000 airports (METAR and TAF reports).

The available stations are represented by yellow and red dots on the map.

Hover mouse over dot to see the name of the station.

Then click to see weather observations and forecasts.

To change the map : click on the green buttons with a black cross to zoom in, on the green button with a dash to zoom out, or on the green arrows for adjacent maps.


METAR-TAF: